createdAt,value
2016-08-30T00:00:34.960Z,0
2016-08-30T00:01:23.542Z,0
2016-08-30T00:02:21.098Z,0
2016-08-30T00:03:19.116Z,0
2016-08-30T00:04:19.936Z,0
2016-08-30T00:05:21.217Z,0
2016-08-30T00:06:19.046Z,0
2016-08-30T00:07:19.093Z,0
2016-08-30T00:08:19.025Z,0
2016-08-30T00:09:19.104Z,0
2016-08-30T00:10:19.173Z,0
2016-08-30T00:11:19.018Z,0
2016-08-30T00:12:19.036Z,0
2016-08-30T00:13:19.042Z,0
2016-08-30T00:14:18.990Z,0
2016-08-30T00:15:19.393Z,0
2016-08-30T00:16:19.041Z,0
2016-08-30T00:17:19.058Z,0
2016-08-30T00:18:19.042Z,0
2016-08-30T00:19:19.078Z,0
2016-08-30T00:20:19.029Z,0
2016-08-30T00:21:19.046Z,0
2016-08-30T00:22:19.035Z,0
2016-08-30T00:23:19.043Z,0
2016-08-30T00:24:19.047Z,0
2016-08-30T00:25:20.198Z,0
2016-08-30T00:26:19.045Z,0
2016-08-30T00:27:19.025Z,0
2016-08-30T00:28:19.045Z,0
2016-08-30T00:29:19.043Z,0
2016-08-30T00:30:20.827Z,0
2016-08-30T00:31:19.043Z,0
2016-08-30T00:32:19.032Z,0
2016-08-30T00:33:19.043Z,0
2016-08-30T00:34:19.022Z,0
2016-08-30T00:35:19.013Z,0
2016-08-30T00:36:19.373Z,0
2016-08-30T00:37:19.040Z,0
2016-08-30T00:38:19.063Z,0
2016-08-30T00:39:19.069Z,0
2016-08-30T00:40:19.062Z,0
2016-08-30T00:41:19.106Z,0
2016-08-30T00:42:19.217Z,0
2016-08-30T00:43:19.166Z,0
2016-08-30T00:44:19.075Z,0
2016-08-30T00:45:19.059Z,0
2016-08-30T00:46:19.043Z,0
2016-08-30T00:47:19.461Z,0
2016-08-30T00:48:19.068Z,0
2016-08-30T00:49:19.074Z,0
2016-08-30T00:50:19.069Z,0
2016-08-30T00:51:19.075Z,0
2016-08-30T00:52:19.079Z,0
2016-08-30T00:53:19.089Z,0
2016-08-30T00:54:22.312Z,0
2016-08-30T00:55:19.307Z,0
2016-08-30T00:56:19.295Z,0
2016-08-30T00:57:19.257Z,0
2016-08-30T00:58:19.285Z,0
2016-08-30T00:59:19.261Z,0
2016-08-30T01:00:19.916Z,0
2016-08-30T01:01:19.341Z,0
2016-08-30T01:02:19.276Z,0
2016-08-30T01:03:19.280Z,0
2016-08-30T01:04:19.270Z,0
2016-08-30T01:05:19.658Z,0
2016-08-30T01:06:19.288Z,0
2016-08-30T01:07:19.302Z,0
2016-08-30T01:08:19.277Z,0
2016-08-30T01:09:19.248Z,0
2016-08-30T01:10:19.305Z,0
2016-08-30T01:11:19.263Z,0
2016-08-30T01:12:19.322Z,0
2016-08-30T01:13:19.336Z,0
2016-08-30T01:14:19.318Z,0
2016-08-30T01:15:19.295Z,0
2016-08-30T01:17:29.170Z,0
2016-08-30T01:18:19.267Z,0
2016-08-30T01:19:19.298Z,0
2016-08-30T01:20:19.353Z,0
2016-08-30T01:21:19.277Z,0
2016-08-30T01:22:19.265Z,0
2016-08-30T01:23:19.351Z,0
2016-08-30T01:24:19.305Z,0
2016-08-30T01:25:19.340Z,0
2016-08-30T01:26:19.281Z,0
2016-08-30T01:27:19.428Z,0
2016-08-30T01:28:19.278Z,0
2016-08-30T01:29:19.309Z,0
2016-08-30T01:30:19.365Z,0
2016-08-30T01:31:19.245Z,0
2016-08-30T01:32:19.322Z,0
2016-08-30T01:33:19.331Z,0
2016-08-30T01:34:19.317Z,0
2016-08-30T01:35:19.294Z,0
2016-08-30T01:36:19.329Z,0
2016-08-30T01:37:19.303Z,0
2016-08-30T01:38:19.340Z,0
2016-08-30T01:39:19.275Z,0
2016-08-30T01:40:19.337Z,0
2016-08-30T01:41:19.404Z,0
2016-08-30T01:42:19.330Z,0
2016-08-30T01:43:19.337Z,0
2016-08-30T01:44:19.278Z,0
2016-08-30T01:45:19.354Z,0
2016-08-30T01:46:19.271Z,0
2016-08-30T01:47:19.342Z,0
2016-08-30T01:48:19.297Z,0
2016-08-30T01:49:19.354Z,0
2016-08-30T01:50:19.350Z,0
2016-08-30T01:51:19.363Z,0
2016-08-30T01:52:19.426Z,0
2016-08-30T01:53:19.338Z,0
2016-08-30T01:54:19.295Z,0
2016-08-30T01:55:19.385Z,0
2016-08-30T01:56:19.337Z,0
2016-08-30T01:57:19.328Z,0
2016-08-30T01:58:19.320Z,0
2016-08-30T01:59:19.369Z,0
2016-08-30T02:00:19.310Z,0
2016-08-30T02:01:19.340Z,0
2016-08-30T02:02:19.361Z,0
2016-08-30T02:03:19.313Z,0
2016-08-30T02:04:19.345Z,0
2016-08-30T02:05:19.306Z,0
2016-08-30T02:06:19.299Z,0
2016-08-30T02:07:19.331Z,0
2016-08-30T02:08:19.261Z,0
2016-08-30T02:09:19.298Z,0
2016-08-30T02:10:19.356Z,0
2016-08-30T02:11:19.361Z,0
2016-08-30T02:12:19.352Z,0
2016-08-30T02:13:19.325Z,0
2016-08-30T02:14:19.359Z,0
2016-08-30T02:15:19.463Z,0
2016-08-30T02:16:19.352Z,0
2016-08-30T02:17:19.356Z,0
2016-08-30T02:18:19.354Z,0
2016-08-30T02:19:19.352Z,0
2016-08-30T02:20:19.564Z,0
2016-08-30T02:21:19.308Z,0
2016-08-30T02:22:19.322Z,0
2016-08-30T02:23:19.376Z,0
2016-08-30T02:24:19.338Z,0
2016-08-30T02:25:19.384Z,0
2016-08-30T02:26:19.331Z,0
2016-08-30T02:27:19.325Z,0
2016-08-30T02:28:19.392Z,0
2016-08-30T02:29:19.399Z,0
2016-08-30T02:30:19.430Z,0
2016-08-30T02:31:19.352Z,0
2016-08-30T02:32:19.368Z,0
2016-08-30T02:35:30.902Z,0
2016-08-30T02:36:19.400Z,0
2016-08-30T02:37:19.110Z,0
2016-08-30T02:38:19.219Z,0
2016-08-30T02:39:19.147Z,0
2016-08-30T02:40:19.126Z,0
2016-08-30T02:41:19.216Z,0
2016-08-30T02:42:19.138Z,0
2016-08-30T02:43:19.142Z,0
2016-08-30T02:44:19.148Z,0
2016-08-30T02:45:19.158Z,0
2016-08-30T02:46:19.133Z,0
2016-08-30T02:47:19.130Z,0
2016-08-30T02:48:19.149Z,0
2016-08-30T02:49:19.150Z,0
2016-08-30T02:50:19.685Z,0
2016-08-30T02:51:19.163Z,0
2016-08-30T02:52:19.143Z,0
2016-08-30T02:53:19.160Z,0
2016-08-30T02:54:19.143Z,0
2016-08-30T02:55:19.141Z,0
2016-08-30T02:56:19.139Z,0
2016-08-30T02:57:19.130Z,0
2016-08-30T02:58:19.142Z,0
2016-08-30T02:59:19.157Z,0
2016-08-30T03:00:19.419Z,0
2016-08-30T03:01:19.128Z,0
2016-08-30T03:02:19.162Z,0
2016-08-30T03:03:19.144Z,0
2016-08-30T03:04:19.162Z,0
2016-08-30T03:05:19.272Z,0
2016-08-30T03:06:19.190Z,0
2016-08-30T03:07:19.185Z,0
2016-08-30T03:08:19.174Z,0
2016-08-30T03:09:19.163Z,0
2016-08-30T03:10:19.200Z,0
2016-08-30T03:11:19.160Z,0
2016-08-30T03:12:19.159Z,0
2016-08-30T03:13:19.174Z,0
2016-08-30T03:14:19.208Z,0
2016-08-30T03:15:20.447Z,0
2016-08-30T03:16:19.173Z,0
2016-08-30T03:17:19.175Z,0
2016-08-30T03:18:19.174Z,0
2016-08-30T03:19:19.164Z,0
2016-08-30T03:20:19.185Z,0
2016-08-30T03:21:19.188Z,0
2016-08-30T03:22:19.172Z,0
2016-08-30T03:23:19.163Z,0
2016-08-30T03:24:19.191Z,0
2016-08-30T03:25:19.197Z,0
2016-08-30T03:26:19.156Z,0
2016-08-30T03:27:19.193Z,0
2016-08-30T03:28:19.149Z,0
2016-08-30T03:29:19.159Z,0
2016-08-30T03:30:19.177Z,0
2016-08-30T03:31:19.172Z,0
2016-08-30T03:32:19.159Z,0
2016-08-30T03:33:19.169Z,0
2016-08-30T03:34:19.174Z,0
2016-08-30T03:35:19.161Z,0
2016-08-30T03:36:19.175Z,0
2016-08-30T03:37:19.176Z,0
2016-08-30T03:38:19.209Z,0
2016-08-30T03:39:19.209Z,0
2016-08-30T03:40:19.285Z,0
2016-08-30T03:41:19.240Z,0
2016-08-30T03:42:19.176Z,0
2016-08-30T03:43:19.235Z,0
2016-08-30T03:44:19.178Z,0
2016-08-30T03:45:19.579Z,0
2016-08-30T03:46:19.192Z,0
2016-08-30T03:47:19.205Z,0
2016-08-30T03:48:19.221Z,0
2016-08-30T03:49:19.198Z,0
2016-08-30T03:50:19.188Z,0
2016-08-30T03:51:19.208Z,0
2016-08-30T03:52:19.236Z,0
2016-08-30T03:53:19.205Z,0
2016-08-30T03:54:19.196Z,0
2016-08-30T03:55:19.210Z,0
2016-08-30T03:56:19.254Z,0
2016-08-30T03:57:19.206Z,0
2016-08-30T03:58:19.193Z,0
2016-08-30T03:59:19.203Z,0
2016-08-30T04:00:19.413Z,0
2016-08-30T04:01:19.206Z,0
2016-08-30T04:02:19.223Z,4
2016-08-30T04:03:19.214Z,4
2016-08-30T04:04:19.192Z,0
2016-08-30T04:05:19.207Z,4
2016-08-30T04:06:19.209Z,4
2016-08-30T04:07:19.193Z,4
2016-08-30T04:08:19.193Z,4
2016-08-30T04:09:19.214Z,8
2016-08-30T04:10:19.199Z,4
2016-08-30T04:11:19.195Z,8
2016-08-30T04:12:19.223Z,8
2016-08-30T04:13:19.207Z,12
2016-08-30T04:14:19.226Z,12
2016-08-30T04:15:19.192Z,12
2016-08-30T04:16:19.225Z,16
2016-08-30T04:17:19.190Z,20
2016-08-30T04:18:19.191Z,24
2016-08-30T04:19:19.202Z,28
2016-08-30T04:20:19.215Z,32
2016-08-30T04:21:19.195Z,36
2016-08-30T04:22:19.210Z,40
2016-08-30T04:23:19.221Z,52
2016-08-30T04:24:19.244Z,56
2016-08-30T04:25:19.281Z,64
2016-08-30T04:26:19.214Z,72
2016-08-30T04:27:19.230Z,84
2016-08-30T04:28:19.260Z,92
2016-08-30T04:29:19.221Z,104
2016-08-30T04:30:19.241Z,112
2016-08-30T04:31:19.243Z,128
2016-08-30T04:32:19.276Z,140
2016-08-30T04:33:19.227Z,156
2016-08-30T04:34:19.349Z,168
2016-08-30T04:35:19.273Z,184
2016-08-30T04:36:19.243Z,200
2016-08-30T04:37:19.259Z,216
2016-08-30T04:38:19.247Z,236
2016-08-30T04:39:19.235Z,256
2016-08-30T04:40:19.891Z,276
2016-08-30T04:41:19.238Z,300
2016-08-30T04:42:19.215Z,320
2016-08-30T04:43:19.237Z,344
2016-08-30T04:44:19.223Z,372
2016-08-30T04:45:19.221Z,400
2016-08-30T04:46:19.254Z,424
2016-08-30T04:47:19.247Z,448
2016-08-30T04:48:19.251Z,472
2016-08-30T04:49:19.277Z,496
2016-08-30T04:50:19.226Z,520
2016-08-30T04:51:19.244Z,544
2016-08-30T04:52:19.223Z,560
2016-08-30T04:53:19.213Z,580
2016-08-30T04:54:19.253Z,592
2016-08-30T04:55:19.508Z,612
2016-08-30T04:56:19.300Z,624
2016-08-30T04:57:19.273Z,640
2016-08-30T04:58:19.248Z,668
2016-08-30T04:59:19.236Z,692
2016-08-30T05:00:19.239Z,728
2016-08-30T05:01:19.238Z,756
2016-08-30T05:02:19.265Z,792
2016-08-30T05:03:19.253Z,824
2016-08-30T05:04:19.271Z,852
2016-08-30T05:05:19.265Z,880
2016-08-30T05:06:19.309Z,916
2016-08-30T05:07:19.253Z,956
2016-08-30T05:08:19.238Z,992
2016-08-30T05:09:19.262Z,1032
2016-08-30T05:10:19.228Z,1076
2016-08-30T05:11:19.978Z,1116
2016-08-30T05:12:19.224Z,1156
2016-08-30T05:13:19.269Z,1208
2016-08-30T05:14:19.334Z,1260
2016-08-30T05:15:19.313Z,1320
2016-08-30T05:16:19.270Z,1356
2016-08-30T05:17:19.255Z,1404
2016-08-30T05:18:19.268Z,1436
2016-08-30T05:19:19.256Z,1472
2016-08-30T05:20:19.310Z,1516
2016-08-30T05:21:19.270Z,1552
2016-08-30T05:22:19.240Z,1588
2016-08-30T05:23:19.262Z,1636
2016-08-30T05:24:19.254Z,1692
2016-08-30T05:25:19.285Z,1740
2016-08-30T05:26:19.304Z,1788
2016-08-30T05:27:19.260Z,1828
2016-08-30T05:28:19.267Z,1876
2016-08-30T05:29:19.271Z,1912
2016-08-30T05:30:19.287Z,1944
2016-08-30T05:31:19.241Z,1980
2016-08-30T05:32:19.282Z,2016
2016-08-30T05:33:19.270Z,2040
2016-08-30T05:34:19.288Z,2072
2016-08-30T05:35:19.285Z,2096
2016-08-30T05:36:19.567Z,2128
2016-08-30T05:37:19.314Z,2152
2016-08-30T05:38:19.321Z,2176
2016-08-30T05:39:19.272Z,2204
2016-08-30T05:40:19.435Z,2232
2016-08-30T05:41:19.361Z,2260
2016-08-30T05:42:19.317Z,2288
2016-08-30T05:43:19.749Z,2308
2016-08-30T05:44:19.329Z,2336
2016-08-30T05:45:25.067Z,2352
2016-08-30T05:46:19.319Z,2368
2016-08-30T05:47:19.270Z,2380
2016-08-30T05:48:19.287Z,2392
2016-08-30T05:49:19.298Z,2416
2016-08-30T05:50:21.027Z,2428
2016-08-30T05:51:19.347Z,2452
2016-08-30T05:52:19.268Z,2468
2016-08-30T05:53:19.305Z,2488
2016-08-30T05:58:20.069Z,2568
2016-08-30T05:59:22.708Z,2584
2016-08-30T06:00:46.986Z,2612
2016-08-30T06:01:47.606Z,2636
2016-08-30T06:02:19.508Z,2644
2016-08-30T06:03:19.325Z,2660
2016-08-30T06:04:19.348Z,2676
2016-08-30T06:05:20.686Z,2692
2016-08-30T06:06:19.325Z,2708
2016-08-30T06:07:20.524Z,2724
2016-08-30T06:08:19.375Z,2736
2016-08-30T06:09:19.412Z,2756
2016-08-30T06:10:44.045Z,2772
2016-08-30T06:11:19.351Z,2780
2016-08-30T06:12:19.298Z,2792
2016-08-30T06:13:19.305Z,2796
2016-08-30T06:14:19.317Z,2800
2016-08-30T06:15:28.133Z,2792
2016-08-30T06:16:19.364Z,2772
2016-08-30T06:17:19.351Z,2720
2016-08-30T06:18:19.403Z,2708
2016-08-30T06:19:19.792Z,2712
2016-08-30T06:20:30.272Z,2876
2016-08-30T06:21:19.319Z,2880
2016-08-30T06:22:19.316Z,2892
2016-08-30T06:23:19.302Z,2904
2016-08-30T06:24:19.304Z,2920
2016-08-30T06:25:19.318Z,2928
2016-08-30T06:26:19.344Z,2932
2016-08-30T06:27:19.318Z,2944
2016-08-30T06:28:19.307Z,2956
2016-08-30T06:29:19.370Z,2964
2016-08-30T06:30:20.132Z,2976
2016-08-30T06:31:19.372Z,2988
2016-08-30T06:32:19.348Z,2992
2016-08-30T06:33:19.315Z,3004
2016-08-30T06:34:19.347Z,3012
2016-08-30T06:35:19.370Z,3028
2016-08-30T06:36:19.387Z,3036
2016-08-30T06:37:19.321Z,3044
2016-08-30T06:38:19.370Z,3052
2016-08-30T06:39:19.369Z,3068
2016-08-30T06:40:19.356Z,3088
2016-08-30T06:41:19.368Z,3112
2016-08-30T06:42:19.354Z,3120
2016-08-30T06:43:19.338Z,3132
2016-08-30T06:44:19.293Z,3148
2016-08-30T06:45:20.329Z,3160
2016-08-30T06:46:19.340Z,3172
2016-08-30T06:47:19.305Z,3180
2016-08-30T06:48:19.312Z,3200
2016-08-30T06:49:19.377Z,3212
2016-08-30T06:50:19.350Z,3220
2016-08-30T06:51:19.376Z,3232
2016-08-30T06:52:19.414Z,3248
2016-08-30T06:53:19.326Z,3260
2016-08-30T06:54:19.316Z,3268
2016-08-30T06:55:19.328Z,3276
2016-08-30T06:56:19.320Z,3284
2016-08-30T06:57:19.341Z,3284
2016-08-30T06:58:19.358Z,3284
2016-08-30T06:59:19.372Z,3276
2016-08-30T07:00:19.383Z,3268
2016-08-30T07:01:19.511Z,3264
2016-08-30T07:02:19.341Z,3240
2016-08-30T07:03:19.380Z,3284
2016-08-30T07:04:19.323Z,3304
2016-08-30T07:05:19.387Z,3308
2016-08-30T07:06:19.391Z,3292
2016-08-30T07:07:19.666Z,3304
2016-08-30T07:08:19.952Z,3320
2016-08-30T07:09:19.328Z,3364
2016-08-30T07:10:19.366Z,3388
2016-08-30T07:11:19.343Z,3396
2016-08-30T07:12:19.428Z,3412
2016-08-30T07:13:19.370Z,3416
2016-08-30T07:14:19.402Z,3428
2016-08-30T07:15:19.418Z,3440
2016-08-30T07:16:19.397Z,3456
2016-08-30T07:17:19.403Z,3472
2016-08-30T07:18:19.382Z,3488
2016-08-30T07:19:19.381Z,3504
2016-08-30T07:20:27.366Z,3512
2016-08-30T07:21:19.728Z,3516
2016-08-30T07:22:19.445Z,3512
2016-08-30T07:23:19.774Z,3520
2016-08-30T07:24:19.389Z,3528
2016-08-30T07:25:19.671Z,3544
2016-08-30T07:26:21.856Z,3552
2016-08-30T07:27:19.471Z,3556
2016-08-30T07:28:19.383Z,3560
2016-08-30T07:29:19.339Z,3568
2016-08-30T07:30:19.475Z,3580
2016-08-30T07:31:19.392Z,3580
2016-08-30T07:32:19.353Z,3584
2016-08-30T07:33:19.394Z,3588
2016-08-30T07:34:19.353Z,3588
2016-08-30T07:35:19.393Z,3584
2016-08-30T07:36:19.413Z,3584
2016-08-30T07:37:19.475Z,3604
2016-08-30T07:38:19.368Z,3600
2016-08-30T07:39:19.406Z,3592
2016-08-30T07:40:19.405Z,3608
2016-08-30T07:41:19.452Z,3660
2016-08-30T07:42:19.413Z,3680
2016-08-30T07:43:19.388Z,3684
2016-08-30T07:44:19.476Z,3696
2016-08-30T07:45:19.386Z,3704
2016-08-30T07:46:19.447Z,3712
2016-08-30T07:47:19.368Z,3724
2016-08-30T07:48:19.464Z,3740
2016-08-30T07:49:19.397Z,3764
2016-08-30T07:50:19.390Z,3784
2016-08-30T07:51:19.398Z,3804
2016-08-30T07:52:19.459Z,3832
2016-08-30T07:53:19.381Z,3848
2016-08-30T07:54:19.384Z,3868
2016-08-30T07:55:19.822Z,3892
2016-08-30T07:56:20.584Z,3920
2016-08-30T07:57:19.418Z,3940
2016-08-30T07:58:19.429Z,3964
2016-08-30T07:59:19.524Z,3976
2016-08-30T08:00:19.397Z,3972
2016-08-30T08:01:19.546Z,3964
2016-08-30T08:02:19.407Z,3948
2016-08-30T08:03:34.054Z,3940
2016-08-30T08:04:19.459Z,3932
2016-08-30T08:05:19.491Z,3920
2016-08-30T08:06:19.427Z,3920
2016-08-30T08:07:20.094Z,3908
2016-08-30T08:08:19.529Z,3892
2016-08-30T08:09:19.614Z,3880
2016-08-30T08:10:20.407Z,3872
2016-08-30T08:11:19.609Z,3852
2016-08-30T08:12:19.522Z,3820
2016-08-30T08:13:19.755Z,3808
2016-08-30T08:14:19.404Z,3788
2016-08-30T08:15:20.033Z,3772
2016-08-30T08:16:19.681Z,3788
2016-08-30T08:17:19.464Z,3804
2016-08-30T08:18:19.427Z,3800
2016-08-30T08:19:19.443Z,3796
2016-08-30T08:20:19.439Z,3780
2016-08-30T08:21:19.503Z,3752
2016-08-30T08:22:19.430Z,3720
2016-08-30T08:23:19.521Z,3704
2016-08-30T08:24:19.818Z,3700
2016-08-30T08:25:20.454Z,3704
2016-08-30T08:26:20.140Z,3716
2016-08-30T08:30:48.153Z,3740
2016-08-30T08:31:48.297Z,3776
2016-08-30T08:32:47.811Z,3800
2016-08-30T08:33:47.945Z,3764
2016-08-30T08:34:47.873Z,3740
2016-08-30T08:35:48.038Z,3720
2016-08-30T08:36:47.936Z,3700
2016-08-30T08:37:47.848Z,3676
2016-08-30T08:38:47.847Z,3664
2016-08-30T08:39:47.841Z,3652
2016-08-30T08:42:06.124Z,3672
2016-08-30T08:42:47.889Z,3684
2016-08-30T08:43:47.929Z,3668
2016-08-30T08:45:08.625Z,3616
2016-08-30T08:45:48.325Z,3576
2016-08-30T08:46:48.648Z,3556
2016-08-30T08:47:48.688Z,3540
2016-08-30T08:48:47.970Z,3516
2016-08-30T08:49:47.914Z,3504
2016-08-30T08:50:48.361Z,3492
2016-08-30T08:51:49.815Z,3484
2016-08-30T08:52:48.869Z,3476
2016-08-30T08:53:47.997Z,3472
2016-08-30T08:54:47.933Z,3472
2016-08-30T08:55:48.077Z,3472
2016-08-30T08:56:48.119Z,3472
2016-08-30T08:57:47.940Z,3472
2016-08-30T08:58:47.920Z,3464
2016-08-30T08:59:48.738Z,3464
2016-08-30T09:00:48.414Z,3464
2016-08-30T09:01:48.011Z,3468
2016-08-30T09:02:47.975Z,3472
2016-08-30T09:03:47.966Z,3476
2016-08-30T09:04:47.886Z,3480
2016-08-30T09:05:47.895Z,3476
2016-08-30T09:06:47.906Z,3468
2016-08-30T09:07:47.912Z,3468
2016-08-30T09:08:47.954Z,3464
2016-08-30T09:09:48.013Z,3464
2016-08-30T09:10:47.932Z,3460
2016-08-30T09:11:47.891Z,3468
2016-08-30T09:12:48.087Z,3464
2016-08-30T09:13:47.904Z,3468
2016-08-30T09:14:47.953Z,3472
2016-08-30T09:15:47.857Z,3472
2016-08-30T09:16:47.961Z,3472
2016-08-30T09:17:47.959Z,3464
2016-08-30T09:18:48.214Z,3452
2016-08-30T09:19:48.295Z,3452
2016-08-30T09:20:47.892Z,3456
2016-08-30T09:21:48.263Z,3456
2016-08-30T09:22:49.968Z,3472
2016-08-30T09:23:47.868Z,3476
2016-08-30T09:24:47.872Z,3476
2016-08-30T09:25:47.919Z,3476
2016-08-30T09:26:47.904Z,3472
2016-08-30T09:27:47.894Z,3472
2016-08-30T09:28:47.918Z,3468
2016-08-30T09:29:47.937Z,3468
2016-08-30T09:30:47.997Z,3468
2016-08-30T09:31:47.912Z,3464
2016-08-30T09:32:47.913Z,3460
2016-08-30T09:33:47.904Z,3456
2016-08-30T09:34:47.874Z,3452
2016-08-30T09:35:47.933Z,3456
2016-08-30T09:36:47.889Z,3460
2016-08-30T09:37:47.924Z,3460
2016-08-30T09:38:47.964Z,3464
2016-08-30T09:39:47.922Z,3472
2016-08-30T09:40:47.918Z,3472
2016-08-30T09:41:47.939Z,3464
2016-08-30T09:42:47.896Z,3460
2016-08-30T09:43:47.920Z,3456
2016-08-30T09:44:47.903Z,3444
2016-08-30T09:45:47.932Z,3436
2016-08-30T09:46:47.931Z,3428
2016-08-30T09:47:47.886Z,3424
2016-08-30T09:48:47.877Z,3420
2016-08-30T09:49:47.884Z,3428
2016-08-30T09:50:47.904Z,3424
2016-08-30T09:51:47.965Z,3416
2016-08-30T09:52:47.904Z,3416
2016-08-30T09:53:47.980Z,3412
2016-08-30T09:54:47.900Z,3420
2016-08-30T09:55:48.016Z,3428
2016-08-30T09:56:47.935Z,3436
2016-08-30T09:57:47.980Z,3448
2016-08-30T09:58:48.032Z,3444
2016-08-30T09:59:47.933Z,3436
2016-08-30T10:00:47.947Z,3428
2016-08-30T10:01:47.953Z,3428
2016-08-30T10:02:47.964Z,3432
2016-08-30T10:03:48.081Z,3428
2016-08-30T10:04:47.945Z,3440
2016-08-30T10:05:47.964Z,3452
2016-08-30T10:06:47.984Z,3444
2016-08-30T10:07:47.954Z,3440
2016-08-30T10:08:47.926Z,3448
2016-08-30T10:09:48.010Z,3436
2016-08-30T10:10:47.984Z,3432
2016-08-30T10:11:47.948Z,3432
2016-08-30T10:12:47.922Z,3452
2016-08-30T10:13:47.928Z,3472
2016-08-30T10:14:47.950Z,3512
2016-08-30T10:15:48.017Z,3552
2016-08-30T10:16:48.755Z,3588
2016-08-30T10:17:48.652Z,3628
2016-08-30T10:18:49.447Z,3640
2016-08-30T10:19:48.037Z,3656
2016-08-30T10:20:47.988Z,3668
2016-08-30T10:21:47.934Z,3684
2016-08-30T10:22:48.926Z,3744
2016-08-30T10:23:48.075Z,3756
2016-08-30T10:24:48.145Z,3720
2016-08-30T10:25:49.008Z,3696
2016-08-30T10:26:48.596Z,3652
2016-08-30T10:27:48.205Z,3588
2016-08-30T10:28:48.092Z,3552
2016-08-30T10:29:48.265Z,3528
2016-08-30T10:30:47.937Z,3520
2016-08-30T10:31:47.998Z,3504
2016-08-30T10:32:47.944Z,3520
2016-08-30T10:33:48.146Z,3568
2016-08-30T10:34:48.031Z,3652
2016-08-30T10:35:48.248Z,3672
2016-08-30T10:36:48.070Z,3628
2016-08-30T10:37:48.235Z,3556
2016-08-30T10:38:47.997Z,3488
2016-08-30T10:39:47.990Z,3464
2016-08-30T10:40:48.043Z,3468
2016-08-30T10:41:48.226Z,3480
2016-08-30T10:42:48.236Z,3484
2016-08-30T10:43:47.968Z,3492
2016-08-30T10:44:48.945Z,3492
2016-08-30T10:45:47.943Z,3492
2016-08-30T10:46:48.727Z,3484
2016-08-30T10:47:47.971Z,3496
2016-08-30T10:48:48.003Z,3516
2016-08-30T10:49:48.101Z,3576
2016-08-30T10:50:47.953Z,3636
2016-08-30T10:51:47.935Z,3660
2016-08-30T10:52:48.161Z,3612
2016-08-30T10:53:47.932Z,3564
2016-08-30T10:54:48.100Z,3532
2016-08-30T10:55:48.041Z,3460
2016-08-30T10:56:47.982Z,3416
2016-08-30T10:57:47.960Z,3384
2016-08-30T10:58:47.998Z,3388
2016-08-30T10:59:48.003Z,3388
2016-08-30T11:00:47.982Z,3388
2016-08-30T11:01:48.002Z,3360
2016-08-30T11:02:48.017Z,3136
2016-08-30T11:03:48.196Z,3120
2016-08-30T11:04:48.527Z,3112
2016-08-30T11:05:48.643Z,3116
2016-08-30T11:06:47.961Z,3120
2016-08-30T11:07:48.880Z,3112
2016-08-30T11:08:48.017Z,3116
2016-08-30T11:09:48.657Z,3120
2016-08-30T11:10:48.157Z,3128
2016-08-30T11:11:47.989Z,3116
2016-08-30T11:12:49.043Z,3116
2016-08-30T11:13:49.083Z,3348
2016-08-30T11:14:48.107Z,3368
2016-08-30T11:15:48.171Z,3368
2016-08-30T11:16:48.190Z,3360
2016-08-30T11:17:48.036Z,3328
2016-08-30T11:18:48.019Z,3316
2016-08-30T11:19:48.329Z,3304
2016-08-30T11:20:47.997Z,3304
2016-08-30T11:21:48.063Z,3308
2016-08-30T11:22:48.013Z,3316
2016-08-30T11:23:48.060Z,3312
2016-08-30T11:24:49.409Z,3300
2016-08-30T11:25:48.515Z,3288
2016-08-30T11:26:48.768Z,3296
2016-08-30T11:27:47.998Z,3336
2016-08-30T11:28:48.049Z,3372
2016-08-30T11:29:48.044Z,3352
2016-08-30T11:30:48.254Z,3376
2016-08-30T11:31:48.156Z,3408
2016-08-30T11:32:48.544Z,3352
2016-08-30T11:33:49.054Z,3312
2016-08-30T11:34:48.886Z,3304
2016-08-30T11:35:49.005Z,3312
2016-08-30T11:36:48.036Z,3328
2016-08-30T11:37:48.600Z,3316
2016-08-30T11:38:49.035Z,3312
2016-08-30T11:39:48.740Z,3336
2016-08-30T11:40:48.843Z,3388
2016-08-30T11:41:48.123Z,3464
2016-08-30T11:42:48.680Z,3504
2016-08-30T11:43:49.023Z,3516
2016-08-30T11:44:48.804Z,3484
2016-08-30T11:45:48.075Z,3444
2016-08-30T11:46:48.068Z,3344
2016-08-30T11:47:50.204Z,3260
2016-08-30T11:48:49.901Z,3220
2016-08-30T11:49:48.600Z,3224
2016-08-30T11:50:48.824Z,3212
2016-08-30T11:51:48.556Z,3188
2016-08-30T11:52:49.246Z,3180
2016-08-30T11:53:48.064Z,3176
2016-08-30T11:54:49.084Z,3148
2016-08-30T11:55:50.402Z,3132
2016-08-30T11:56:49.110Z,3120
2016-08-30T11:57:48.084Z,3108
2016-08-30T11:58:48.963Z,3100
2016-08-30T11:59:48.152Z,3096
2016-08-30T12:00:50.087Z,3104
2016-08-30T12:01:49.299Z,3128
2016-08-30T12:02:48.039Z,3148
2016-08-30T12:03:48.041Z,3148
2016-08-30T12:04:48.161Z,3128
2016-08-30T12:05:49.020Z,3116
2016-08-30T12:06:48.051Z,3112
2016-08-30T12:07:49.734Z,3096
2016-08-30T12:08:48.080Z,3088
2016-08-30T12:09:48.054Z,3076
2016-08-30T12:10:48.076Z,3068
2016-08-30T12:11:48.277Z,3064
2016-08-30T12:12:48.808Z,3060
2016-08-30T12:13:48.087Z,3056
2016-08-30T12:14:48.961Z,3060
2016-08-30T12:15:48.790Z,3064
2016-08-30T12:16:48.183Z,3068
2016-08-30T12:17:48.111Z,3060
2016-08-30T12:18:48.098Z,3060
2016-08-30T12:19:48.229Z,3056
2016-08-30T12:20:48.227Z,3056
2016-08-30T12:21:48.992Z,3060
2016-08-30T12:22:48.110Z,3056
2016-08-30T12:23:48.480Z,3052
2016-08-30T12:24:48.139Z,3052
2016-08-30T12:25:48.066Z,3060
2016-08-30T12:26:48.134Z,3064
2016-08-30T12:27:48.094Z,3068
2016-08-30T12:28:48.129Z,3064
2016-08-30T12:29:48.105Z,3072
2016-08-30T12:30:48.096Z,3068
2016-08-30T12:31:48.123Z,3064
2016-08-30T12:32:48.129Z,3064
2016-08-30T12:33:48.117Z,3068
2016-08-30T12:34:48.103Z,3088
2016-08-30T12:35:48.076Z,3112
2016-08-30T12:36:48.087Z,3104
2016-08-30T12:37:48.086Z,3092
2016-08-30T12:38:48.108Z,3080
2016-08-30T12:39:48.154Z,3076
2016-08-30T12:40:48.171Z,3068
2016-08-30T12:41:48.149Z,3072
2016-08-30T12:42:48.128Z,3068
2016-08-30T12:43:48.082Z,3064
2016-08-30T12:44:48.128Z,3060
2016-08-30T12:45:48.132Z,3056
2016-08-30T12:46:48.121Z,3056
2016-08-30T12:47:48.124Z,3060
2016-08-30T12:48:48.107Z,3056
2016-08-30T12:49:48.189Z,3068
2016-08-30T12:50:48.176Z,3104
2016-08-30T12:51:48.112Z,3160
2016-08-30T12:52:48.135Z,3188
2016-08-30T12:53:48.154Z,3200
2016-08-30T12:54:48.823Z,3200
2016-08-30T12:55:48.686Z,3148
2016-08-30T12:56:48.138Z,3116
2016-08-30T12:57:48.157Z,3112
2016-08-30T12:58:48.174Z,3116
2016-08-30T12:59:48.157Z,3140
2016-08-30T13:00:48.181Z,3196
2016-08-30T13:01:48.173Z,3292
2016-08-30T13:02:48.186Z,3328
2016-08-30T13:03:48.154Z,3332
2016-08-30T13:04:48.220Z,3288
2016-08-30T13:05:48.151Z,3260
2016-08-30T13:06:48.161Z,3300
2016-08-30T13:07:48.147Z,3388
2016-08-30T13:08:48.155Z,3416
2016-08-30T13:09:48.177Z,3424
2016-08-30T13:10:48.161Z,3380
2016-08-30T13:11:48.770Z,3292
2016-08-30T13:12:48.158Z,3240
2016-08-30T13:13:48.236Z,3004
2016-08-30T13:14:48.142Z,3060
2016-08-30T13:15:48.248Z,3104
2016-08-30T13:16:49.587Z,3172
2016-08-30T13:17:48.217Z,3260
2016-08-30T13:18:48.194Z,3280
2016-08-30T13:19:48.195Z,3312
2016-08-30T13:20:48.192Z,3280
2016-08-30T13:21:48.188Z,3176
2016-08-30T13:22:48.161Z,3144
2016-08-30T13:23:48.187Z,3244
2016-08-30T13:24:48.191Z,3376
2016-08-30T13:25:48.199Z,3472
2016-08-30T13:26:48.262Z,3288
2016-08-30T13:27:48.216Z,3104
2016-08-30T13:28:48.202Z,3048
2016-08-30T13:29:48.254Z,3024
2016-08-30T13:30:48.209Z,3020
2016-08-30T13:31:48.240Z,3020
2016-08-30T13:32:48.262Z,3044
2016-08-30T13:33:48.218Z,3040
2016-08-30T13:34:48.186Z,3044
2016-08-30T13:35:48.178Z,3052
2016-08-30T13:36:48.175Z,3072
2016-08-30T13:37:48.132Z,3508
2016-08-30T13:38:48.135Z,3312
2016-08-30T13:39:48.170Z,3276
2016-08-30T13:40:48.193Z,3276
2016-08-30T13:41:48.205Z,3292
2016-08-30T13:42:48.164Z,3304
2016-08-30T13:43:48.210Z,3380
2016-08-30T13:44:48.167Z,3336
2016-08-30T13:45:48.810Z,3280
2016-08-30T13:46:48.175Z,3268
2016-08-30T13:47:48.262Z,3256
2016-08-30T13:48:48.173Z,3252
2016-08-30T13:49:48.162Z,3252
2016-08-30T13:50:48.158Z,3252
2016-08-30T13:51:48.201Z,3256
2016-08-30T13:52:48.143Z,3260
2016-08-30T13:53:48.190Z,3264
2016-08-30T13:54:48.962Z,3252
2016-08-30T13:55:48.147Z,3268
2016-08-30T13:56:49.311Z,3284